sensor_id;sensor_type;location;lat;lon;timestamp;temperature;humidity
60033;DHT22;45905;50.570;10.428;2023-09-19T00:00:57;16.50;99.90
60033;DHT22;45905;50.570;10.428;2023-09-19T00:03:24;20.60;99.90
60033;DHT22;45905;50.570;10.428;2023-09-19T00:05:58;16.20;99.90
60033;DHT22;45905;50.570;10.428;2023-09-19T00:08:25;16.40;99.90
60033;DHT22;45905;50.570;10.428;2023-09-19T00:10:54;16.40;99.90
60033;DHT22;45905;50.570;10.428;2023-09-19T00:13:21;11.70;99.90
60033;DHT22;45905;50.570;10.428;2023-09-19T00:15:49;16.40;99.90
60033;DHT22;45905;50.570;10.428;2023-09-19T00:18:20;16.40;99.90
60033;DHT22;45905;50.570;10.428;2023-09-19T00:20:50;16.40;99.90
60033;DHT22;45905;50.570;10.428;2023-09-19T00:23:19;16.30;99.90
60033;DHT22;45905;50.570;10.428;2023-09-19T00:25:47;16.40;99.90
60033;DHT22;45905;50.570;10.428;2023-09-19T00:28:15;16.30;99.90
60033;DHT22;45905;50.570;10.428;2023-09-19T00:30:44;16.30;99.90
60033;DHT22;45905;50.570;10.428;2023-09-19T00:33:11;16.20;99.90
60033;DHT22;45905;50.570;10.428;2023-09-19T00:35:48;14.00;99.90
60033;DHT22;45905;50.570;10.428;2023-09-19T00:38:15;16.20;99.90
60033;DHT22;45905;50.570;10.428;2023-09-19T00:40:45;16.20;99.90
60033;DHT22;45905;50.570;10.428;2023-09-19T00:43:13;16.20;99.90
60033;DHT22;45905;50.570;10.428;2023-09-19T00:45:43;16.10;99.90
60033;DHT22;45905;50.570;10.428;2023-09-19T00:48:12;16.00;99.90
60033;DHT22;45905;50.570;10.428;2023-09-19T00:50:42;16.10;99.90
60033;DHT22;45905;50.570;10.428;2023-09-19T00:53:14;11.50;99.90
60033;DHT22;45905;50.570;10.428;2023-09-19T00:55:46;16.00;99.90
60033;DHT22;45905;50.570;10.428;2023-09-19T00:58:19;16.00;99.90
60033;DHT22;45905;50.570;10.428;2023-09-19T01:00:48;16.00;99.90
60033;DHT22;45905;50.570;10.428;2023-09-19T01:03:17;16.00;99.90
60033;DHT22;45905;50.570;10.428;2023-09-19T01:05:46;16.00;99.90
60033;DHT22;45905;50.570;10.428;2023-09-19T01:08:13;16.00;99.90
60033;DHT22;45905;50.570;10.428;2023-09-19T01:10:46;15.90;99.90
60033;DHT22;45905;50.570;10.428;2023-09-19T01:13:31;15.90;99.90
60033;DHT22;45905;50.570;10.428;2023-09-19T01:31:22;15.70;99.90
60033;DHT22;45905;50.570;10.428;2023-09-19T01:36:34;15.70;99.90
60033;DHT22;45905;50.570;10.428;2023-09-19T01:39:08;15.70;99.90
60033;DHT22;45905;50.570;10.428;2023-09-19T01:41:57;15.70;99.90
60033;DHT22;45905;50.570;10.428;2023-09-19T01:47:52;15.70;99.90
60033;DHT22;45905;50.570;10.428;2023-09-19T01:50:42;15.70;99.90
60033;DHT22;45905;50.570;10.428;2023-09-19T01:53:23;15.70;99.90
60033;DHT22;45905;50.570;10.428;2023-09-19T01:55:55;15.70;99.90
60033;DHT22;45905;50.570;10.428;2023-09-19T02:01:08;15.70;99.90
60033;DHT22;45905;50.570;10.428;2023-09-19T02:03:41;15.70;99.90
60033;DHT22;45905;50.570;10.428;2023-09-19T02:06:18;20.90;99.90
60033;DHT22;45905;50.570;10.428;2023-09-19T02:08:46;15.80;99.90
60033;DHT22;45905;50.570;10.428;2023-09-19T02:11:14;15.80;99.90
60033;DHT22;45905;50.570;10.428;2023-09-19T02:13:42;15.80;99.90
60033;DHT22;45905;50.570;10.428;2023-09-19T02:16:11;15.80;99.90
60033;DHT22;45905;50.570;10.428;2023-09-19T02:18:39;15.80;99.90
60033;DHT22;45905;50.570;10.428;2023-09-19T02:21:07;15.70;99.90
60033;DHT22;45905;50.570;10.428;2023-09-19T02:23:37;15.80;99.90
60033;DHT22;45905;50.570;10.428;2023-09-19T02:26:06;15.90;99.90
60033;DHT22;45905;50.570;10.428;2023-09-19T02:28:34;15.90;99.90
60033;DHT22;45905;50.570;10.428;2023-09-19T02:31:02;15.90;99.90
60033;DHT22;45905;50.570;10.428;2023-09-19T02:33:32;15.90;99.90
60033;DHT22;45905;50.570;10.428;2023-09-19T02:36:00;15.90;99.90
60033;DHT22;45905;50.570;10.428;2023-09-19T02:38:28;15.90;99.90
60033;DHT22;45905;50.570;10.428;2023-09-19T02:40:56;15.90;99.90
60033;DHT22;45905;50.570;10.428;2023-09-19T02:43:23;15.90;99.90
60033;DHT22;45905;50.570;10.428;2023-09-19T02:45:51;16.00;99.90
60033;DHT22;45905;50.570;10.428;2023-09-19T02:48:21;16.00;99.90
60033;DHT22;45905;50.570;10.428;2023-09-19T02:50:50;16.00;99.90
60033;DHT22;45905;50.570;10.428;2023-09-19T02:53:18;16.00;99.90
60033;DHT22;45905;50.570;10.428;2023-09-19T02:55:49;16.00;99.90
60033;DHT22;45905;50.570;10.428;2023-09-19T02:58:17;16.00;99.90
60033;DHT22;45905;50.570;10.428;2023-09-19T03:00:46;15.90;99.90
60033;DHT22;45905;50.570;10.428;2023-09-19T03:03:15;16.00;99.90
60033;DHT22;45905;50.570;10.428;2023-09-19T03:05:43;16.40;99.90
60033;DHT22;45905;50.570;10.428;2023-09-19T03:08:17;16.10;99.90
60033;DHT22;45905;50.570;10.428;2023-09-19T03:10:47;16.10;99.90
60033;DHT22;45905;50.570;10.428;2023-09-19T03:13:17;16.00;99.90
60033;DHT22;45905;50.570;10.428;2023-09-19T03:15:45;16.00;99.90
60033;DHT22;45905;50.570;10.428;2023-09-19T03:18:21;16.00;99.90
60033;DHT22;45905;50.570;10.428;2023-09-19T03:20:55;16.10;99.90
60033;DHT22;45905;50.570;10.428;2023-09-19T03:23:23;16.00;99.90
60033;DHT22;45905;50.570;10.428;2023-09-19T03:25:50;16.10;99.90
60033;DHT22;45905;50.570;10.428;2023-09-19T03:28:19;16.10;99.90
60033;DHT22;45905;50.570;10.428;2023-09-19T03:31:03;16.10;99.90
60033;DHT22;45905;50.570;10.428;2023-09-19T03:33:34;16.10;99.90
60033;DHT22;45905;50.570;10.428;2023-09-19T03:36:02;16.10;99.90
60033;DHT22;45905;50.570;10.428;2023-09-19T03:38:33;16.10;99.90
60033;DHT22;45905;50.570;10.428;2023-09-19T03:41:03;16.00;99.90
60033;DHT22;45905;50.570;10.428;2023-09-19T03:43:32;16.00;99.90
60033;DHT22;45905;50.570;10.428;2023-09-19T03:46:03;16.00;99.90
60033;DHT22;45905;50.570;10.428;2023-09-19T03:48:37;16.00;99.90
60033;DHT22;45905;50.570;10.428;2023-09-19T03:51:04;16.00;99.90
60033;DHT22;45905;50.570;10.428;2023-09-19T03:53:32;15.90;99.90
60033;DHT22;45905;50.570;10.428;2023-09-19T03:55:59;15.90;99.90
60033;DHT22;45905;50.570;10.428;2023-09-19T03:58:29;15.90;99.90
60033;DHT22;45905;50.570;10.428;2023-09-19T04:00:57;15.90;99.90
60033;DHT22;45905;50.570;10.428;2023-09-19T04:03:27;15.90;99.90
60033;DHT22;45905;50.570;10.428;2023-09-19T04:06:02;15.80;99.90
60033;DHT22;45905;50.570;10.428;2023-09-19T04:08:29;15.90;99.90
60033;DHT22;45905;50.570;10.428;2023-09-19T04:10:56;15.80;99.90
60033;DHT22;45905;50.570;10.428;2023-09-19T04:13:24;15.80;99.90
60033;DHT22;45905;50.570;10.428;2023-09-19T04:15:52;15.70;99.90
60033;DHT22;45905;50.570;10.428;2023-09-19T04:18:20;15.70;99.90
60033;DHT22;45905;50.570;10.428;2023-09-19T04:20:52;15.70;99.90
60033;DHT22;45905;50.570;10.428;2023-09-19T04:23:20;15.70;99.90
60033;DHT22;45905;50.570;10.428;2023-09-19T04:25:48;15.60;99.90
60033;DHT22;45905;50.570;10.428;2023-09-19T04:28:15;15.60;99.90
60033;DHT22;45905;50.570;10.428;2023-09-19T04:30:43;15.60;99.90
60033;DHT22;45905;50.570;10.428;2023-09-19T04:33:10;15.60;99.90
60033;DHT22;45905;50.570;10.428;2023-09-19T04:35:41;15.70;99.90
60033;DHT22;45905;50.570;10.428;2023-09-19T04:38:11;15.60;99.90
60033;DHT22;45905;50.570;10.428;2023-09-19T04:40:38;15.60;99.90
60033;DHT22;45905;50.570;10.428;2023-09-19T04:43:06;15.70;99.90
60033;DHT22;45905;50.570;10.428;2023-09-19T04:45:34;15.60;99.90
60033;DHT22;45905;50.570;10.428;2023-09-19T04:48:01;15.60;99.90
60033;DHT22;45905;50.570;10.428;2023-09-19T04:50:29;15.50;99.90
60033;DHT22;45905;50.570;10.428;2023-09-19T04:52:57;15.50;99.90
60033;DHT22;45905;50.570;10.428;2023-09-19T04:55:24;15.50;99.90
60033;DHT22;45905;50.570;10.428;2023-09-19T04:57:52;15.50;99.90
60033;DHT22;45905;50.570;10.428;2023-09-19T05:00:23;15.40;99.90
60033;DHT22;45905;50.570;10.428;2023-09-19T05:02:52;15.10;99.90
60033;DHT22;45905;50.570;10.428;2023-09-19T05:05:22;15.40;99.90
60033;DHT22;45905;50.570;10.428;2023-09-19T05:07:50;15.40;99.90
60033;DHT22;45905;50.570;10.428;2023-09-19T05:10:18;15.30;99.90
60033;DHT22;45905;50.570;10.428;2023-09-19T05:12:46;15.30;99.90
60033;DHT22;45905;50.570;10.428;2023-09-19T05:15:15;15.20;99.90
60033;DHT22;45905;50.570;10.428;2023-09-19T05:17:51;15.20;99.90
60033;DHT22;45905;50.570;10.428;2023-09-19T05:20:24;15.10;99.90
60033;DHT22;45905;50.570;10.428;2023-09-19T05:23:04;15.10;99.90
60033;DHT22;45905;50.570;10.428;2023-09-19T05:25:36;15.10;99.90
60033;DHT22;45905;50.570;10.428;2023-09-19T05:28:10;12.70;99.90
60033;DHT22;45905;50.570;10.428;2023-09-19T05:30:41;15.10;99.90
60033;DHT22;45905;50.570;10.428;2023-09-19T05:33:14;15.00;99.90
60033;DHT22;45905;50.570;10.428;2023-09-19T05:35:41;15.00;99.90
60033;DHT22;45905;50.570;10.428;2023-09-19T05:38:08;15.10;99.90
60033;DHT22;45905;50.570;10.428;2023-09-19T05:40:36;15.10;99.90
60033;DHT22;45905;50.570;10.428;2023-09-19T05:43:05;15.10;99.90
60033;DHT22;45905;50.570;10.428;2023-09-19T05:45:32;15.10;99.90
60033;DHT22;45905;50.570;10.428;2023-09-19T05:48:08;15.10;99.90
60033;DHT22;45905;50.570;10.428;2023-09-19T05:50:40;15.20;99.90
60033;DHT22;45905;50.570;10.428;2023-09-19T05:53:08;15.10;99.90
60033;DHT22;45905;50.570;10.428;2023-09-19T05:55:37;15.20;99.90
60033;DHT22;45905;50.570;10.428;2023-09-19T05:58:05;15.10;99.90
60033;DHT22;45905;50.570;10.428;2023-09-19T06:00:32;15.30;99.90
60033;DHT22;45905;50.570;10.428;2023-09-19T06:03:02;15.20;99.90
60033;DHT22;45905;50.570;10.428;2023-09-19T06:05:30;15.30;99.90
60033;DHT22;45905;50.570;10.428;2023-09-19T06:07:58;15.30;99.90
60033;DHT22;45905;50.570;10.428;2023-09-19T06:10:30;15.10;99.90
60033;DHT22;45905;50.570;10.428;2023-09-19T06:17:56;15.50;99.90
60033;DHT22;45905;50.570;10.428;2023-09-19T06:20:24;15.40;99.90
60033;DHT22;45905;50.570;10.428;2023-09-19T06:22:54;15.30;99.90
60033;DHT22;45905;50.570;10.428;2023-09-19T06:25:21;15.90;99.90
60033;DHT22;45905;50.570;10.428;2023-09-19T06:27:53;15.40;99.90
60033;DHT22;45905;50.570;10.428;2023-09-19T06:30:23;15.00;99.90
60033;DHT22;45905;50.570;10.428;2023-09-19T06:32:56;15.40;99.90
60033;DHT22;45905;50.570;10.428;2023-09-19T06:35:25;15.40;99.90
60033;DHT22;45905;50.570;10.428;2023-09-19T06:37:53;15.30;99.90
60033;DHT22;45905;50.570;10.428;2023-09-19T06:40:20;15.50;99.90
60033;DHT22;45905;50.570;10.428;2023-09-19T06:42:51;15.50;99.90
60033;DHT22;45905;50.570;10.428;2023-09-19T06:45:20;15.60;99.90
60033;DHT22;45905;50.570;10.428;2023-09-19T06:47:51;15.60;99.90
60033;DHT22;45905;50.570;10.428;2023-09-19T06:50:20;15.60;99.90
60033;DHT22;45905;50.570;10.428;2023-09-19T06:52:53;15.80;99.90
60033;DHT22;45905;50.570;10.428;2023-09-19T06:55:22;15.50;99.90
60033;DHT22;45905;50.570;10.428;2023-09-19T06:57:56;15.70;99.90
60033;DHT22;45905;50.570;10.428;2023-09-19T07:00:23;15.60;99.90
60033;DHT22;45905;50.570;10.428;2023-09-19T07:05:23;15.70;99.90
60033;DHT22;45905;50.570;10.428;2023-09-19T07:07:51;15.70;99.90
60033;DHT22;45905;50.570;10.428;2023-09-19T07:10:18;15.80;99.90
60033;DHT22;45905;50.570;10.428;2023-09-19T07:12:47;15.80;99.90
60033;DHT22;45905;50.570;10.428;2023-09-19T07:15:14;15.80;99.90
60033;DHT22;45905;50.570;10.428;2023-09-19T07:17:41;15.90;99.90
60033;DHT22;45905;50.570;10.428;2023-09-19T07:20:09;15.90;99.90
60033;DHT22;45905;50.570;10.428;2023-09-19T07:22:37;15.90;99.90
60033;DHT22;45905;50.570;10.428;2023-09-19T07:25:06;15.90;99.90
60033;DHT22;45905;50.570;10.428;2023-09-19T07:27:34;16.00;99.90
60033;DHT22;45905;50.570;10.428;2023-09-19T07:30:01;16.00;99.90
60033;DHT22;45905;50.570;10.428;2023-09-19T07:32:28;16.10;99.90
60033;DHT22;45905;50.570;10.428;2023-09-19T07:34:56;16.10;99.90
60033;DHT22;45905;50.570;10.428;2023-09-19T07:37:23;16.10;99.90
60033;DHT22;45905;50.570;10.428;2023-09-19T07:39:52;16.10;99.90
60033;DHT22;45905;50.570;10.428;2023-09-19T07:42:20;16.20;99.90
60033;DHT22;45905;50.570;10.428;2023-09-19T07:44:47;16.20;99.90
60033;DHT22;45905;50.570;10.428;2023-09-19T07:47:17;16.20;99.90
60033;DHT22;45905;50.570;10.428;2023-09-19T07:49:46;16.30;99.90
60033;DHT22;45905;50.570;10.428;2023-09-19T07:52:15;16.30;99.90
60033;DHT22;45905;50.570;10.428;2023-09-19T07:54:42;16.30;99.90
60033;DHT22;45905;50.570;10.428;2023-09-19T07:57:11;16.30;99.90
60033;DHT22;45905;50.570;10.428;2023-09-19T07:59:38;16.40;99.90
60033;DHT22;45905;50.570;10.428;2023-09-19T08:02:08;16.40;99.90
60033;DHT22;45905;50.570;10.428;2023-09-19T08:04:43;16.40;99.90
60033;DHT22;45905;50.570;10.428;2023-09-19T08:07:13;16.40;99.90
60033;DHT22;45905;50.570;10.428;2023-09-19T08:09:40;16.40;99.90
60033;DHT22;45905;50.570;10.428;2023-09-19T08:12:08;16.40;99.90
60033;DHT22;45905;50.570;10.428;2023-09-19T08:14:37;16.50;99.90
60033;DHT22;45905;50.570;10.428;2023-09-19T08:17:05;16.50;99.90
60033;DHT22;45905;50.570;10.428;2023-09-19T08:19:38;16.50;99.90
60033;DHT22;45905;50.570;10.428;2023-09-19T08:22:09;16.50;99.80
60033;DHT22;45905;50.570;10.428;2023-09-19T08:24:37;16.60;99.20
60033;DHT22;45905;50.570;10.428;2023-09-19T08:27:05;16.50;99.30
60033;DHT22;45905;50.570;10.428;2023-09-19T08:29:36;16.70;99.70
60033;DHT22;45905;50.570;10.428;2023-09-19T08:32:03;16.50;99.80
60033;DHT22;45905;50.570;10.428;2023-09-19T08:34:31;16.60;99.90
60033;DHT22;45905;50.570;10.428;2023-09-19T08:37:01;16.70;99.70
60033;DHT22;45905;50.570;10.428;2023-09-19T08:39:28;16.70;99.60
60033;DHT22;45905;50.570;10.428;2023-09-19T08:41:58;16.90;99.50
60033;DHT22;45905;50.570;10.428;2023-09-19T08:44:26;16.80;98.60
60033;DHT22;45905;50.570;10.428;2023-09-19T08:47:15;16.80;98.90
60033;DHT22;45905;50.570;10.428;2023-09-19T08:49:57;16.90;98.20
60033;DHT22;45905;50.570;10.428;2023-09-19T08:52:44;16.90;97.90
60033;DHT22;45905;50.570;10.428;2023-09-19T08:55:17;16.90;97.60
60033;DHT22;45905;50.570;10.428;2023-09-19T08:57:49;17.00;97.10
60033;DHT22;45905;50.570;10.428;2023-09-19T09:00:27;16.90;97.30
60033;DHT22;45905;50.570;10.428;2023-09-19T09:02:56;17.00;97.20
60033;DHT22;45905;50.570;10.428;2023-09-19T09:05:25;16.90;96.50
60033;DHT22;45905;50.570;10.428;2023-09-19T09:07:55;16.90;96.40
60033;DHT22;45905;50.570;10.428;2023-09-19T09:10:24;18.10;97.10
60033;DHT22;45905;50.570;10.428;2023-09-19T09:12:52;17.10;96.60
60033;DHT22;45905;50.570;10.428;2023-09-19T09:15:22;17.10;96.90
60033;DHT22;45905;50.570;10.428;2023-09-19T09:17:51;17.10;96.50
60033;DHT22;45905;50.570;10.428;2023-09-19T09:20:23;17.20;96.50
60033;DHT22;45905;50.570;10.428;2023-09-19T09:22:54;17.30;96.10
60033;DHT22;45905;50.570;10.428;2023-09-19T09:25:54;17.30;95.80
60033;DHT22;45905;50.570;10.428;2023-09-19T09:28:28;17.30;95.90
60033;DHT22;45905;50.570;10.428;2023-09-19T09:30:58;17.30;94.90
60033;DHT22;45905;50.570;10.428;2023-09-19T09:33:25;17.30;95.00
60033;DHT22;45905;50.570;10.428;2023-09-19T09:35:58;17.30;95.10
60033;DHT22;45905;50.570;10.428;2023-09-19T09:38:46;17.30;94.40
60033;DHT22;45905;50.570;10.428;2023-09-19T09:41:16;17.40;94.50
60033;DHT22;45905;50.570;10.428;2023-09-19T09:43:54;17.40;93.40
60033;DHT22;45905;50.570;10.428;2023-09-19T09:46:22;17.40;93.90
60033;DHT22;45905;50.570;10.428;2023-09-19T09:49:00;17.40;94.00
60033;DHT22;45905;50.570;10.428;2023-09-19T09:51:46;17.50;93.80
60033;DHT22;45905;50.570;10.428;2023-09-19T09:54:25;17.50;93.70
60033;DHT22;45905;50.570;10.428;2023-09-19T09:57:10;17.50;93.40
60033;DHT22;45905;50.570;10.428;2023-09-19T10:02:45;17.50;93.30
60033;DHT22;45905;50.570;10.428;2023-09-19T10:05:19;17.50;93.50
60033;DHT22;45905;50.570;10.428;2023-09-19T10:07:48;17.50;93.40
60033;DHT22;45905;50.570;10.428;2023-09-19T10:10:39;17.40;93.70
60033;DHT22;45905;50.570;10.428;2023-09-19T10:13:12;17.50;94.20
60033;DHT22;45905;50.570;10.428;2023-09-19T10:15:48;17.60;94.40
60033;DHT22;45905;50.570;10.428;2023-09-19T10:18:20;17.70;94.90
60033;DHT22;45905;50.570;10.428;2023-09-19T10:20:49;17.80;94.60
60033;DHT22;45905;50.570;10.428;2023-09-19T10:23:19;17.90;95.00
60033;DHT22;45905;50.570;10.428;2023-09-19T10:25:51;18.00;95.00
60033;DHT22;45905;50.570;10.428;2023-09-19T10:28:20;18.10;95.00
60033;DHT22;45905;50.570;10.428;2023-09-19T10:30:52;18.10;94.60
60033;DHT22;45905;50.570;10.428;2023-09-19T10:33:22;18.10;94.00
60033;DHT22;45905;50.570;10.428;2023-09-19T10:35:53;18.10;93.40
60033;DHT22;45905;50.570;10.428;2023-09-19T10:38:24;18.10;93.60
60033;DHT22;45905;50.570;10.428;2023-09-19T10:40:54;18.20;93.70
60033;DHT22;45905;50.570;10.428;2023-09-19T10:43:33;18.20;92.00
60033;DHT22;45905;50.570;10.428;2023-09-19T10:46:06;18.30;92.40
60033;DHT22;45905;50.570;10.428;2023-09-19T10:48:38;18.40;91.60
60033;DHT22;45905;50.570;10.428;2023-09-19T10:51:14;18.40;91.10
60033;DHT22;45905;50.570;10.428;2023-09-19T10:53:55;18.30;91.60
60033;DHT22;45905;50.570;10.428;2023-09-19T10:56:36;18.30;91.10
60033;DHT22;45905;50.570;10.428;2023-09-19T10:59:09;18.40;90.50
60033;DHT22;45905;50.570;10.428;2023-09-19T11:01:48;18.40;90.30
60033;DHT22;45905;50.570;10.428;2023-09-19T11:07:14;18.30;87.60
60033;DHT22;45905;50.570;10.428;2023-09-19T11:15:08;18.10;89.80
60033;DHT22;45905;50.570;10.428;2023-09-19T11:17:41;18.20;89.00
60033;DHT22;45905;50.570;10.428;2023-09-19T11:30:47;18.10;88.30
60033;DHT22;45905;50.570;10.428;2023-09-19T11:33:19;18.10;89.60
60033;DHT22;45905;50.570;10.428;2023-09-19T11:46:24;18.30;90.00
60033;DHT22;45905;50.570;10.428;2023-09-19T11:48:52;18.40;90.00
60033;DHT22;45905;50.570;10.428;2023-09-19T11:51:21;18.50;88.20
60033;DHT22;45905;50.570;10.428;2023-09-19T11:53:51;18.60;88.40
60033;DHT22;45905;50.570;10.428;2023-09-19T11:56:22;18.60;86.50
60033;DHT22;45905;50.570;10.428;2023-09-19T11:58:54;18.60;85.30
60033;DHT22;45905;50.570;10.428;2023-09-19T12:01:33;18.60;85.60
60033;DHT22;45905;50.570;10.428;2023-09-19T12:04:03;18.60;85.30
60033;DHT22;45905;50.570;10.428;2023-09-19T12:06:32;18.60;84.30
60033;DHT22;45905;50.570;10.428;2023-09-19T12:09:00;18.90;83.70
60033;DHT22;45905;50.570;10.428;2023-09-19T12:11:29;18.80;84.00
60033;DHT22;45905;50.570;10.428;2023-09-19T12:14:02;18.90;84.50
60033;DHT22;45905;50.570;10.428;2023-09-19T12:16:31;18.90;84.90
60033;DHT22;45905;50.570;10.428;2023-09-19T12:19:18;19.00;84.80
60033;DHT22;45905;50.570;10.428;2023-09-19T12:21:59;19.00;84.40
60033;DHT22;45905;50.570;10.428;2023-09-19T12:24:36;19.30;83.80
60033;DHT22;45905;50.570;10.428;2023-09-19T12:27:07;19.10;84.00
60033;DHT22;45905;50.570;10.428;2023-09-19T12:32:17;19.30;84.40
60033;DHT22;45905;50.570;10.428;2023-09-19T12:34:52;19.40;82.70
60033;DHT22;45905;50.570;10.428;2023-09-19T12:37:22;19.50;83.10
60033;DHT22;45905;50.570;10.428;2023-09-19T12:39:51;19.60;81.30
60033;DHT22;45905;50.570;10.428;2023-09-19T12:42:24;19.60;78.60
60033;DHT22;45905;50.570;10.428;2023-09-19T12:44:59;19.60;80.20
60033;DHT22;45905;50.570;10.428;2023-09-19T12:47:28;22.50;84.00
60033;DHT22;45905;50.570;10.428;2023-09-19T12:50:14;19.90;81.50
60033;DHT22;45905;50.570;10.428;2023-09-19T12:52:47;19.70;77.10
60033;DHT22;45905;50.570;10.428;2023-09-19T12:55:29;19.90;76.70
60033;DHT22;45905;50.570;10.428;2023-09-19T13:00:38;20.00;78.20
60033;DHT22;45905;50.570;10.428;2023-09-19T13:03:12;20.40;80.00
60033;DHT22;45905;50.570;10.428;2023-09-19T13:05:48;20.10;80.40
60033;DHT22;45905;50.570;10.428;2023-09-19T13:08:37;20.30;77.30
60033;DHT22;45905;50.570;10.428;2023-09-19T13:11:11;20.30;77.10
60033;DHT22;45905;50.570;10.428;2023-09-19T13:16:17;20.40;75.60
60033;DHT22;45905;50.570;10.428;2023-09-19T13:18:58;20.40;75.80
60033;DHT22;45905;50.570;10.428;2023-09-19T13:21:32;20.90;78.40
60033;DHT22;45905;50.570;10.428;2023-09-19T13:24:24;20.70;76.30
60033;DHT22;45905;50.570;10.428;2023-09-19T13:26:56;20.50;75.10
60033;DHT22;45905;50.570;10.428;2023-09-19T13:29:24;20.80;75.80
60033;DHT22;45905;50.570;10.428;2023-09-19T13:31:52;20.90;76.80
60033;DHT22;45905;50.570;10.428;2023-09-19T13:34:20;20.90;73.10
60033;DHT22;45905;50.570;10.428;2023-09-19T13:36:48;20.90;74.00
60033;DHT22;45905;50.570;10.428;2023-09-19T13:39:16;20.90;72.50
60033;DHT22;45905;50.570;10.428;2023-09-19T13:41:47;20.80;70.70
60033;DHT22;45905;50.570;10.428;2023-09-19T13:44:15;20.70;72.40
60033;DHT22;45905;50.570;10.428;2023-09-19T13:46:44;20.80;71.00
60033;DHT22;45905;50.570;10.428;2023-09-19T13:49:15;20.90;72.10
60033;DHT22;45905;50.570;10.428;2023-09-19T13:51:42;20.90;70.10
60033;DHT22;45905;50.570;10.428;2023-09-19T13:54:11;21.00;70.40
60033;DHT22;45905;50.570;10.428;2023-09-19T13:56:39;21.00;70.90
60033;DHT22;45905;50.570;10.428;2023-09-19T13:59:07;21.10;71.00
60033;DHT22;45905;50.570;10.428;2023-09-19T14:01:35;21.00;71.60
60033;DHT22;45905;50.570;10.428;2023-09-19T14:04:02;20.90;71.80
60033;DHT22;45905;50.570;10.428;2023-09-19T14:06:29;21.00;72.00
60033;DHT22;45905;50.570;10.428;2023-09-19T14:08:56;21.00;72.00
60033;DHT22;45905;50.570;10.428;2023-09-19T14:11:23;21.00;73.10
60033;DHT22;45905;50.570;10.428;2023-09-19T14:13:51;21.10;72.20
60033;DHT22;45905;50.570;10.428;2023-09-19T14:16:22;21.10;71.50
60033;DHT22;45905;50.570;10.428;2023-09-19T14:18:51;21.10;72.30
60033;DHT22;45905;50.570;10.428;2023-09-19T14:21:19;21.00;70.40
60033;DHT22;45905;50.570;10.428;2023-09-19T14:23:46;20.90;71.30
60033;DHT22;45905;50.570;10.428;2023-09-19T14:26:13;20.90;71.60
60033;DHT22;45905;50.570;10.428;2023-09-19T14:28:41;20.90;71.20
60033;DHT22;45905;50.570;10.428;2023-09-19T14:31:10;20.90;72.20
60033;DHT22;45905;50.570;10.428;2023-09-19T14:33:38;20.90;72.90
60033;DHT22;45905;50.570;10.428;2023-09-19T14:36:06;21.00;72.30
60033;DHT22;45905;50.570;10.428;2023-09-19T14:38:37;21.00;72.70
60033;DHT22;45905;50.570;10.428;2023-09-19T14:41:06;21.00;72.00
60033;DHT22;45905;50.570;10.428;2023-09-19T14:43:33;21.00;72.10
60033;DHT22;45905;50.570;10.428;2023-09-19T14:46:05;21.00;72.90
60033;DHT22;45905;50.570;10.428;2023-09-19T14:48:37;21.00;73.10
60033;DHT22;45905;50.570;10.428;2023-09-19T14:51:06;21.10;73.20
60033;DHT22;45905;50.570;10.428;2023-09-19T14:53:36;21.00;72.00
60033;DHT22;45905;50.570;10.428;2023-09-19T14:56:08;21.00;73.00
60033;DHT22;45905;50.570;10.428;2023-09-19T14:58:36;21.50;74.10
60033;DHT22;45905;50.570;10.428;2023-09-19T15:01:07;21.00;73.80
60033;DHT22;45905;50.570;10.428;2023-09-19T15:03:37;21.00;73.70
60033;DHT22;45905;50.570;10.428;2023-09-19T15:06:13;21.00;72.70
60033;DHT22;45905;50.570;10.428;2023-09-19T15:08:47;20.90;70.10
60033;DHT22;45905;50.570;10.428;2023-09-19T15:11:18;20.80;71.20
60033;DHT22;45905;50.570;10.428;2023-09-19T15:13:48;20.80;72.20
60033;DHT22;45905;50.570;10.428;2023-09-19T15:16:17;20.80;72.00
60033;DHT22;45905;50.570;10.428;2023-09-19T15:18:45;20.80;72.10
60033;DHT22;45905;50.570;10.428;2023-09-19T15:21:15;20.80;72.10
60033;DHT22;45905;50.570;10.428;2023-09-19T15:23:43;20.80;72.10
60033;DHT22;45905;50.570;10.428;2023-09-19T15:26:13;20.80;71.70
60033;DHT22;45905;50.570;10.428;2023-09-19T15:28:44;20.80;72.00
60033;DHT22;45905;50.570;10.428;2023-09-19T15:31:12;20.70;71.60
60033;DHT22;45905;50.570;10.428;2023-09-19T15:33:40;20.70;72.30
60033;DHT22;45905;50.570;10.428;2023-09-19T15:39:01;20.60;74.00
60033;DHT22;45905;50.570;10.428;2023-09-19T15:41:37;20.70;74.50
60033;DHT22;45905;50.570;10.428;2023-09-19T15:44:14;20.70;73.50
60033;DHT22;45905;50.570;10.428;2023-09-19T15:46:43;20.70;72.90
60033;DHT22;45905;50.570;10.428;2023-09-19T15:49:11;20.60;72.70
60033;DHT22;45905;50.570;10.428;2023-09-19T15:51:39;20.50;73.90
60033;DHT22;45905;50.570;10.428;2023-09-19T15:54:15;20.40;72.90
60033;DHT22;45905;50.570;10.428;2023-09-19T15:56:43;20.30;73.00
60033;DHT22;45905;50.570;10.428;2023-09-19T15:59:12;20.20;73.60
60033;DHT22;45905;50.570;10.428;2023-09-19T16:01:40;20.10;73.90
60033;DHT22;45905;50.570;10.428;2023-09-19T16:04:10;20.00;74.50
60033;DHT22;45905;50.570;10.428;2023-09-19T16:06:39;19.90;75.30
60033;DHT22;45905;50.570;10.428;2023-09-19T16:09:08;19.90;75.50
60033;DHT22;45905;50.570;10.428;2023-09-19T16:11:37;19.90;76.60
60033;DHT22;45905;50.570;10.428;2023-09-19T16:14:05;20.00;76.00
60033;DHT22;45905;50.570;10.428;2023-09-19T16:16:37;19.80;75.80
60033;DHT22;45905;50.570;10.428;2023-09-19T16:19:05;19.70;75.90
60033;DHT22;45905;50.570;10.428;2023-09-19T16:21:38;19.80;76.80
60033;DHT22;45905;50.570;10.428;2023-09-19T16:24:07;19.60;77.00
60033;DHT22;45905;50.570;10.428;2023-09-19T16:26:36;19.70;77.20
60033;DHT22;45905;50.570;10.428;2023-09-19T16:29:04;19.70;77.40
60033;DHT22;45905;50.570;10.428;2023-09-19T16:31:32;19.80;77.20
60033;DHT22;45905;50.570;10.428;2023-09-19T16:34:03;19.70;77.00
60033;DHT22;45905;50.570;10.428;2023-09-19T16:36:30;19.70;77.50
60033;DHT22;45905;50.570;10.428;2023-09-19T16:38:59;19.70;77.60
60033;DHT22;45905;50.570;10.428;2023-09-19T16:41:27;19.60;77.60
60033;DHT22;45905;50.570;10.428;2023-09-19T16:43:54;19.50;78.00
60033;DHT22;45905;50.570;10.428;2023-09-19T16:46:21;19.50;78.60
60033;DHT22;45905;50.570;10.428;2023-09-19T16:48:49;19.50;79.10
60033;DHT22;45905;50.570;10.428;2023-09-19T16:51:19;19.50;78.80